createdAt,value
2018-09-05T00:01:21.923Z,79.57
2018-09-05T00:03:50.490Z,79.87
2018-09-05T00:06:18.687Z,78.92
2018-09-05T00:08:46.888Z,78.92
2018-09-05T00:11:15.091Z,79.49
2018-09-05T00:13:43.322Z,79.80
2018-09-05T00:16:11.511Z,79.31
2018-09-05T00:18:39.679Z,79.79
2018-09-05T00:21:07.871Z,78.90
2018-09-05T00:23:36.108Z,79.80
2018-09-05T00:26:04.789Z,78.65
2018-09-05T00:28:33.043Z,79.63
2018-09-05T00:31:01.266Z,79.14
2018-09-05T00:33:29.515Z,78.67
2018-09-05T00:35:57.711Z,79.40
2018-09-05T00:38:26.267Z,78.60
2018-09-05T00:40:54.527Z,78.63
2018-09-05T00:43:22.795Z,78.64
2018-09-05T00:45:50.968Z,79.65
2018-09-05T00:48:19.207Z,79.33
2018-09-05T00:50:47.463Z,78.84
2018-09-05T00:53:15.711Z,79.32
2018-09-05T00:55:43.971Z,79.72
2018-09-05T00:58:12.167Z,79.19
2018-09-05T01:00:40.382Z,78.73
2018-09-05T01:03:08.615Z,79.07
2018-09-05T01:05:36.855Z,78.63
2018-09-05T01:08:05.511Z,79.01
2018-09-05T01:10:33.732Z,79.52
2018-09-05T01:13:01.925Z,78.59
2018-09-05T01:15:30.133Z,78.58
2018-09-05T01:17:58.395Z,79.17
2018-09-05T01:20:26.587Z,78.46
2018-09-05T01:22:54.806Z,78.74
2018-09-05T01:25:23.046Z,78.59
2018-09-05T01:27:51.515Z,79.53
2018-09-05T01:30:19.881Z,78.61
2018-09-05T01:32:48.079Z,79.41
2018-09-05T01:35:16.263Z,78.56
2018-09-05T01:37:44.518Z,78.55
2018-09-05T01:40:12.756Z,79.34
2018-09-05T01:42:41.021Z,78.37
2018-09-05T01:45:09.227Z,78.61
2018-09-05T01:47:37.412Z,78.99
2018-09-05T01:50:05.604Z,78.69
2018-09-05T01:52:33.794Z,79.69
2018-09-05T01:55:01.999Z,78.54
2018-09-05T01:57:30.203Z,78.67
2018-09-05T01:59:58.523Z,78.46
2018-09-05T02:02:26.715Z,78.68
2018-09-05T02:04:55.600Z,78.81
2018-09-05T02:07:23.838Z,79.03
2018-09-05T02:09:52.015Z,78.50
2018-09-05T02:12:20.493Z,78.53
2018-09-05T02:14:48.704Z,78.18
2018-09-05T02:17:16.906Z,78.30
2018-09-05T02:19:45.143Z,78.43
2018-09-05T02:22:13.511Z,79.36
2018-09-05T02:24:42.015Z,78.63
2018-09-05T02:27:10.188Z,78.99
2018-09-05T02:29:38.425Z,78.52
2018-09-05T02:32:06.670Z,78.36
2018-09-05T02:34:34.886Z,78.82
2018-09-05T02:37:03.074Z,79.45
2018-09-05T02:39:31.310Z,78.53
2018-09-05T02:41:59.524Z,78.49
2018-09-05T02:44:27.731Z,79.55
2018-09-05T02:46:55.920Z,79.41
2018-09-05T02:49:24.174Z,78.82
2018-09-05T02:51:52.390Z,78.74
2018-09-05T02:54:20.574Z,78.58
2018-09-05T02:56:48.884Z,79.38
2018-09-05T02:59:17.088Z,78.64
2018-09-05T03:01:45.291Z,79.63
2018-09-05T03:04:13.480Z,78.59
2018-09-05T03:06:41.682Z,78.86
2018-09-05T03:09:09.892Z,79.88
2018-09-05T03:11:38.215Z,79.42
2018-09-05T03:14:06.431Z,78.61
2018-09-05T03:16:34.667Z,78.45
2018-09-05T03:19:04.108Z,78.84
2018-09-05T03:21:31.058Z,78.85
2018-09-05T03:23:59.258Z,79.45
2018-09-05T03:26:27.534Z,79.50
2018-09-05T03:28:55.767Z,78.64
2018-09-05T03:31:23.999Z,78.35
2018-09-05T03:33:52.287Z,79.13
2018-09-05T03:36:20.559Z,79.26
2018-09-05T03:38:48.755Z,78.98
2018-09-05T03:41:16.958Z,78.25
2018-09-05T03:43:45.143Z,77.94
2018-09-05T03:46:13.386Z,78.11
2018-09-05T03:48:41.592Z,77.99
2018-09-05T03:51:09.819Z,78.71
2018-09-05T03:53:38.055Z,78.71
2018-09-05T03:56:06.260Z,78.00
2018-09-05T03:58:34.523Z,77.89
2018-09-05T04:01:02.731Z,77.82
2018-09-05T04:03:30.981Z,78.26
2018-09-05T04:05:59.162Z,78.77
2018-09-05T04:08:27.433Z,77.91
2018-09-05T04:10:55.651Z,77.96
2018-09-05T04:13:23.936Z,78.33
2018-09-05T04:15:52.140Z,78.04
2018-09-05T04:18:20.314Z,78.87
2018-09-05T04:20:48.522Z,77.78
2018-09-05T04:23:16.782Z,78.71
2018-09-05T04:25:44.995Z,77.80
2018-09-05T04:28:13.233Z,77.82
2018-09-05T04:30:41.482Z,78.73
2018-09-05T04:33:09.719Z,77.99
2018-09-05T04:35:38.043Z,78.83
2018-09-05T04:38:06.247Z,78.12
2018-09-05T04:40:34.617Z,79.18
2018-09-05T04:43:02.786Z,78.19
2018-09-05T04:45:31.031Z,79.12
2018-09-05T04:47:59.266Z,78.26
2018-09-05T04:50:27.478Z,78.83
2018-09-05T04:52:55.668Z,79.20
2018-09-05T04:55:23.859Z,78.39
2018-09-05T04:57:52.092Z,78.37
2018-09-05T05:00:20.291Z,78.48
2018-09-05T05:02:48.499Z,78.43
2018-09-05T05:05:16.666Z,78.75
2018-09-05T05:07:44.951Z,79.48
2018-09-05T05:10:13.163Z,78.20
2018-09-05T05:12:41.443Z,78.56
2018-09-05T05:15:09.615Z,79.69
2018-09-05T05:17:37.824Z,79.36
2018-09-05T05:20:06.030Z,78.53
2018-09-05T05:22:34.244Z,79.23
2018-09-05T05:25:02.567Z,78.67
2018-09-05T05:27:30.831Z,79.36
2018-09-05T05:29:59.104Z,78.46
2018-09-05T05:32:27.356Z,78.26
2018-09-05T05:34:55.737Z,78.70
2018-09-05T05:37:24.105Z,78.82
2018-09-05T05:39:52.302Z,78.63
2018-09-05T05:42:20.603Z,78.65
2018-09-05T05:44:48.784Z,78.38
2018-09-05T05:47:16.979Z,79.39
2018-09-05T05:49:45.247Z,78.04
2018-09-05T05:52:13.439Z,78.41
2018-09-05T05:54:41.616Z,78.29
2018-09-05T05:57:09.815Z,78.70
2018-09-05T05:59:38.176Z,78.21
2018-09-05T06:02:06.527Z,79.07
2018-09-05T06:04:34.980Z,78.75
2018-09-05T06:07:03.198Z,79.58
2018-09-05T06:09:31.418Z,78.91
2018-09-05T06:11:59.773Z,78.81
2018-09-05T06:14:28.027Z,78.41
2018-09-05T06:16:56.274Z,78.54
2018-09-05T06:19:24.458Z,78.74
2018-09-05T06:21:52.734Z,78.93
2018-09-05T06:24:20.947Z,78.62
2018-09-05T06:26:49.163Z,78.42
2018-09-05T06:29:18.079Z,79.28
2018-09-05T06:31:46.286Z,79.34
2018-09-05T06:34:14.522Z,78.49
2018-09-05T06:36:42.658Z,79.46
2018-09-05T06:39:11.306Z,79.22
2018-09-05T06:41:39.488Z,78.67
2018-09-05T06:44:08.150Z,78.75
2018-09-05T06:46:36.404Z,79.50
2018-09-05T06:49:04.623Z,79.56
2018-09-05T06:51:32.923Z,79.52
2018-09-05T06:54:01.152Z,78.42
2018-09-05T06:56:29.374Z,78.36
2018-09-05T06:58:57.546Z,77.10
2018-09-05T07:01:25.752Z,77.02
2018-09-05T07:03:54.021Z,76.56
2018-09-05T07:06:22.235Z,75.97
2018-09-05T07:08:50.431Z,77.31
2018-09-05T07:11:18.607Z,77.69
2018-09-05T07:13:46.851Z,77.10
2018-09-05T07:16:15.079Z,76.92
2018-09-05T07:18:43.316Z,77.59
2018-09-05T07:21:11.557Z,75.90
2018-09-05T07:23:39.710Z,75.91
2018-09-05T07:26:07.929Z,75.97
2018-09-05T07:28:36.157Z,75.32
2018-09-05T07:31:04.563Z,75.00
2018-09-05T07:33:32.743Z,75.67
2018-09-05T07:36:00.933Z,75.23
2018-09-05T07:38:29.139Z,75.51
2018-09-05T07:40:57.355Z,75.06
2018-09-05T07:43:25.671Z,75.10
2018-09-05T07:45:53.884Z,75.80
2018-09-05T07:48:22.132Z,76.12
2018-09-05T07:50:50.361Z,76.17
2018-09-05T07:53:18.534Z,75.07
2018-09-05T07:55:46.738Z,75.35
2018-09-05T07:58:14.906Z,75.20
2018-09-05T08:00:43.091Z,75.44
2018-09-05T08:03:11.263Z,75.81
2018-09-05T08:05:39.548Z,76.53
2018-09-05T08:08:07.791Z,76.41
2018-09-05T08:10:36.059Z,75.88
2018-09-05T08:13:04.272Z,75.78
2018-09-05T08:15:32.497Z,76.77
2018-09-05T08:18:00.717Z,76.59
2018-09-05T08:20:29.031Z,76.84
2018-09-05T08:22:57.278Z,75.99
2018-09-05T08:25:25.490Z,75.95
2018-09-05T08:27:53.727Z,77.20
2018-09-05T08:30:21.923Z,76.04
2018-09-05T08:32:50.135Z,75.64
2018-09-05T08:35:18.606Z,75.99
2018-09-05T08:37:46.618Z,76.45
2018-09-05T08:40:14.800Z,76.81
2018-09-05T08:42:43.035Z,76.26
2018-09-05T08:45:11.343Z,77.32
2018-09-05T08:47:39.510Z,77.68
2018-09-05T08:50:07.641Z,78.00
2018-09-05T08:52:35.839Z,76.68
2018-09-05T08:55:04.543Z,77.50
2018-09-05T08:57:32.627Z,76.65
2018-09-05T09:00:00.836Z,77.29
2018-09-05T09:02:29.107Z,76.55
2018-09-05T09:04:57.309Z,77.18
2018-09-05T09:07:25.501Z,77.41
2018-09-05T09:09:53.716Z,77.04
2018-09-05T09:12:21.976Z,77.16
2018-09-05T09:14:50.191Z,77.56
2018-09-05T09:17:18.390Z,76.94
2018-09-05T09:19:46.632Z,77.12
2018-09-05T09:22:14.862Z,76.54
2018-09-05T09:24:43.083Z,75.51
2018-09-05T09:27:11.303Z,75.86
2018-09-05T09:29:39.496Z,75.96
2018-09-05T09:32:07.763Z,74.62
2018-09-05T09:34:36.007Z,75.60
2018-09-05T09:37:04.256Z,73.26
2018-09-05T09:39:32.474Z,72.73
2018-09-05T09:42:00.664Z,72.58
2018-09-05T09:44:28.900Z,72.89
2018-09-05T09:46:57.391Z,71.32
2018-09-05T09:49:25.598Z,70.60
2018-09-05T09:51:57.983Z,69.88
2018-09-05T09:54:26.187Z,68.76
2018-09-05T09:56:54.414Z,69.82
2018-09-05T09:59:22.655Z,70.66
2018-09-05T10:01:56.152Z,71.41
2018-09-05T10:04:29.764Z,70.83
2018-09-05T10:08:02.927Z,71.37
2018-09-05T10:10:36.601Z,71.05
2018-09-05T10:13:10.082Z,70.91
2018-09-05T10:15:43.768Z,69.95
2018-09-05T10:18:17.282Z,70.09
2018-09-05T10:20:45.498Z,69.80
2018-09-05T10:23:13.892Z,70.68
2018-09-05T10:25:42.138Z,69.83
2018-09-05T10:28:10.367Z,70.03
2018-09-05T10:30:38.602Z,70.32
2018-09-05T10:33:06.837Z,69.53
2018-09-05T10:35:35.037Z,68.91
2018-09-05T10:38:03.295Z,67.98
2018-09-05T10:40:31.505Z,68.72
2018-09-05T10:42:59.702Z,67.91
2018-09-05T10:45:27.928Z,67.83
2018-09-05T10:47:56.420Z,68.53
2018-09-05T10:50:24.639Z,67.87
2018-09-05T10:52:52.895Z,68.77
2018-09-05T10:55:21.081Z,67.63
2018-09-05T10:57:49.343Z,67.76
2018-09-05T11:00:17.572Z,67.33
2018-09-05T11:02:45.743Z,66.20
2018-09-05T11:05:13.946Z,66.85
2018-09-05T11:07:42.178Z,65.50
2018-09-05T11:10:10.427Z,65.96
2018-09-05T11:12:38.622Z,65.60
2018-09-05T11:15:06.949Z,64.86
2018-09-05T11:17:35.263Z,64.00
2018-09-05T11:20:03.537Z,64.56
2018-09-05T11:22:31.808Z,65.10
2018-09-05T11:25:06.231Z,63.86
2018-09-05T11:27:34.462Z,63.74
2018-09-05T11:30:02.605Z,63.46
2018-09-05T11:32:30.811Z,63.03
2018-09-05T11:34:59.120Z,63.52
2018-09-05T11:37:27.563Z,63.32
2018-09-05T11:39:55.774Z,63.69
2018-09-05T11:42:24.006Z,64.19
2018-09-05T11:44:52.330Z,62.97
2018-09-05T11:47:20.516Z,63.46
2018-09-05T11:49:48.899Z,62.24
2018-09-05T11:52:17.211Z,62.62
2018-09-05T11:54:45.553Z,62.73
2018-09-05T11:57:13.858Z,61.69
2018-09-05T11:59:42.132Z,61.51
2018-09-05T12:02:10.936Z,61.40
2018-09-05T12:04:39.296Z,60.89
2018-09-05T12:07:08.029Z,60.82
2018-09-05T12:09:36.236Z,61.09
2018-09-05T12:12:04.482Z,61.90
2018-09-05T12:14:32.683Z,61.66
2018-09-05T12:17:01.233Z,61.21
2018-09-05T12:19:29.419Z,61.30
2018-09-05T12:21:57.579Z,60.05
2018-09-05T12:24:25.773Z,60.91
2018-09-05T12:26:53.983Z,61.37
2018-09-05T12:29:22.252Z,60.81
2018-09-05T12:31:50.422Z,60.16
2018-09-05T12:34:18.611Z,59.98
2018-09-05T12:36:46.897Z,58.83
2018-09-05T12:39:15.298Z,58.79
2018-09-05T12:41:43.974Z,58.44
2018-09-05T12:44:12.691Z,57.63
2018-09-05T12:46:40.843Z,58.81
2018-09-05T12:49:09.192Z,58.00
2018-09-05T12:51:37.468Z,58.13
2018-09-05T12:54:06.240Z,58.22
2018-09-05T12:56:34.551Z,57.28
2018-09-05T12:59:02.792Z,56.18
2018-09-05T13:01:30.994Z,55.88
2018-09-05T13:03:59.316Z,55.03
2018-09-05T13:06:27.856Z,54.47
2018-09-05T13:08:56.034Z,54.76
2018-09-05T13:11:24.305Z,54.37
2018-09-05T13:13:52.469Z,53.02
2018-09-05T13:16:20.959Z,52.79
2018-09-05T13:18:49.171Z,52.72
2018-09-05T13:21:17.373Z,51.71
2018-09-05T13:23:45.781Z,50.38
2018-09-05T13:26:14.169Z,48.68
2018-09-05T13:28:42.817Z,48.43
2018-09-05T13:31:11.091Z,48.03
2018-09-05T13:33:39.303Z,45.38
2018-09-05T13:36:07.695Z,45.42
2018-09-05T13:38:35.878Z,44.25
2018-09-05T13:41:04.080Z,44.54
2018-09-05T13:43:32.341Z,44.47
2018-09-05T13:46:00.585Z,43.19
2018-09-05T13:48:28.814Z,41.99
2018-09-05T13:50:57.047Z,41.07
2018-09-05T13:53:25.239Z,39.90
2018-09-05T13:55:53.447Z,39.87
2018-09-05T13:58:21.627Z,39.72
2018-09-05T14:00:49.862Z,39.95
2018-09-05T14:03:18.226Z,38.54
2018-09-05T14:05:46.435Z,39.17
2018-09-05T14:08:14.683Z,39.41
2018-09-05T14:10:43.135Z,38.64
2018-09-05T14:13:11.324Z,39.60
2018-09-05T14:15:39.531Z,40.00
2018-09-05T14:18:07.760Z,39.84
2018-09-05T14:20:36.015Z,40.58
2018-09-05T14:23:04.216Z,40.72
2018-09-05T14:25:36.618Z,42.09
2018-09-05T14:28:05.410Z,42.94
2018-09-05T14:30:33.647Z,43.76
2018-09-05T14:33:01.902Z,43.05
2018-09-05T14:35:30.105Z,43.80
2018-09-05T14:37:58.343Z,43.64
2018-09-05T14:40:26.538Z,42.99
2018-09-05T14:42:54.774Z,44.70
2018-09-05T14:45:22.990Z,43.56
2018-09-05T14:47:51.217Z,44.33
2018-09-05T14:50:19.533Z,44.88
2018-09-05T14:52:47.971Z,44.90
2018-09-05T14:55:16.278Z,45.31
2018-09-05T14:57:44.766Z,43.90
2018-09-05T15:00:13.081Z,43.75
2018-09-05T15:02:41.377Z,43.58
2018-09-05T15:05:09.753Z,42.95
2018-09-05T15:07:37.991Z,43.36
2018-09-05T15:10:06.363Z,42.23
2018-09-05T15:12:34.583Z,42.46
2018-09-05T15:15:02.792Z,43.70
2018-09-05T15:17:31.069Z,42.89
2018-09-05T15:19:59.295Z,43.70
2018-09-05T15:22:27.515Z,43.61
2018-09-05T15:24:55.760Z,43.91
2018-09-05T15:27:24.031Z,43.62
2018-09-05T15:29:52.298Z,43.90
2018-09-05T15:32:20.628Z,44.10
2018-09-05T15:34:48.793Z,43.36
2018-09-05T15:37:17.081Z,44.14
2018-09-05T15:39:45.270Z,44.43
2018-09-05T15:42:13.467Z,43.04
2018-09-05T15:44:41.783Z,44.83
2018-09-05T15:47:10.106Z,43.77
2018-09-05T15:49:38.320Z,43.27
2018-09-05T15:52:06.622Z,43.57
2018-09-05T15:54:35.798Z,44.12
2018-09-05T15:57:04.004Z,43.70
2018-09-05T15:59:32.425Z,43.34
2018-09-05T16:02:01.259Z,44.67
2018-09-05T16:04:29.524Z,44.86
2018-09-05T16:06:57.796Z,45.18
2018-09-05T16:09:26.360Z,45.41
2018-09-05T16:11:54.844Z,45.66
2018-09-05T16:14:23.076Z,45.68
2018-09-05T16:16:51.405Z,46.50
2018-09-05T16:19:19.610Z,47.08
2018-09-05T16:21:47.853Z,46.48
2018-09-05T16:24:16.039Z,46.60
2018-09-05T16:26:44.223Z,46.74
2018-09-05T16:29:12.502Z,46.10
2018-09-05T16:31:40.774Z,46.20
2018-09-05T16:34:09.515Z,46.16
2018-09-05T16:36:37.721Z,46.96
2018-09-05T16:39:08.790Z,47.16
2018-09-05T16:41:37.420Z,47.43
2018-09-05T16:44:05.607Z,47.62
2018-09-05T16:46:33.818Z,48.36
2018-09-05T16:49:02.042Z,48.67
2018-09-05T16:51:30.387Z,48.56
2018-09-05T16:53:58.564Z,49.58
2018-09-05T16:56:26.851Z,49.41
2018-09-05T16:58:55.107Z,49.64
2018-09-05T17:01:23.372Z,50.31
2018-09-05T17:03:51.604Z,49.97
2018-09-05T17:06:19.806Z,49.20
2018-09-05T17:08:48.058Z,49.79
2018-09-05T17:11:16.366Z,50.16
2018-09-05T17:13:44.572Z,49.32
2018-09-05T17:16:12.820Z,49.57
2018-09-05T17:18:41.067Z,50.30
2018-09-05T17:21:09.331Z,50.01
2018-09-05T17:23:37.548Z,49.98
2018-09-05T17:26:06.166Z,50.30
2018-09-05T17:28:34.446Z,50.26
2018-09-05T17:31:02.627Z,50.12
2018-09-05T17:33:30.840Z,52.09
2018-09-05T17:35:59.031Z,52.05
2018-09-05T17:38:27.282Z,52.87
2018-09-05T17:40:55.472Z,53.24
2018-09-05T17:43:23.666Z,53.21
2018-09-05T17:45:51.894Z,53.23
2018-09-05T17:48:20.151Z,53.94
2018-09-05T17:50:49.044Z,55.26
2018-09-05T17:53:19.714Z,55.40
2018-09-05T17:55:48.195Z,56.39
2018-09-05T17:58:16.434Z,57.71
2018-09-05T18:00:44.726Z,56.89
2018-09-05T18:03:12.954Z,56.20
2018-09-05T18:05:41.130Z,56.89
2018-09-05T18:08:09.323Z,57.20
2018-09-05T18:10:37.566Z,57.36
2018-09-05T18:13:06.031Z,57.89
2018-09-05T18:15:34.289Z,58.57
2018-09-05T18:18:02.605Z,59.02
2018-09-05T18:20:30.806Z,59.87
2018-09-05T18:22:59.051Z,59.56
2018-09-05T18:25:27.344Z,59.81
2018-09-05T18:27:55.560Z,60.57
2018-09-05T18:30:23.907Z,60.25
2018-09-05T18:32:52.395Z,59.82
2018-09-05T18:35:20.581Z,60.92
2018-09-05T18:37:48.815Z,61.35
2018-09-05T18:40:16.991Z,61.54
2018-09-05T18:42:45.229Z,61.15
2018-09-05T18:45:13.451Z,60.78
2018-09-05T18:47:41.697Z,60.77
2018-09-05T18:50:10.095Z,59.61
2018-09-05T18:52:38.328Z,59.49
2018-09-05T18:55:07.436Z,57.76
2018-09-05T18:57:35.642Z,57.53
2018-09-05T19:00:03.878Z,58.04
2018-09-05T19:02:32.123Z,57.50
2018-09-05T19:05:00.343Z,56.98
2018-09-05T19:07:28.532Z,57.26
2018-09-05T19:09:56.749Z,57.38
2018-09-05T19:12:24.975Z,57.77
2018-09-05T19:14:53.244Z,58.33
2018-09-05T19:17:21.438Z,58.01
2018-09-05T19:19:49.655Z,57.15
2018-09-05T19:22:17.877Z,57.24
2018-09-05T19:24:46.076Z,56.65
2018-09-05T19:27:14.326Z,57.11
2018-09-05T19:29:42.555Z,57.62
2018-09-05T19:32:10.776Z,58.09
2018-09-05T19:34:39.077Z,59.16
2018-09-05T19:37:07.485Z,59.76
2018-09-05T19:39:35.696Z,58.96
2018-09-05T19:42:03.926Z,60.75
2018-09-05T19:44:32.156Z,60.30
2018-09-05T19:47:00.449Z,62.06
2018-09-05T19:49:28.700Z,62.89
2018-09-05T19:51:59.311Z,64.94
2018-09-05T19:54:27.533Z,65.76
2018-09-05T19:56:57.085Z,66.32
2018-09-05T19:59:26.172Z,66.77
2018-09-05T20:01:54.441Z,66.66
2018-09-05T20:04:22.880Z,66.20
2018-09-05T20:06:51.065Z,66.62
2018-09-05T20:09:19.458Z,66.08
2018-09-05T20:11:47.651Z,66.86
2018-09-05T20:14:15.863Z,67.73
2018-09-05T20:16:44.067Z,69.02
2018-09-05T20:19:12.354Z,69.98
2018-09-05T20:21:40.583Z,70.11
2018-09-05T20:24:08.988Z,69.57
2018-09-05T20:26:37.251Z,68.33
2018-09-05T20:29:05.967Z,69.10
2018-09-05T20:31:34.899Z,69.43
2018-09-05T20:34:03.156Z,69.03
2018-09-05T20:36:31.819Z,69.56
2018-09-05T20:39:00.012Z,68.71
2018-09-05T20:41:28.216Z,69.21
2018-09-05T20:43:56.516Z,68.83
2018-09-05T20:46:24.727Z,68.67
2018-09-05T20:48:52.988Z,68.80
2018-09-05T20:51:21.263Z,69.22
2018-09-05T20:53:49.466Z,69.45
2018-09-05T20:56:17.814Z,70.14
2018-09-05T20:58:46.236Z,69.51
2018-09-05T21:01:14.417Z,68.99
2018-09-05T21:03:42.660Z,68.70
2018-09-05T21:06:10.907Z,69.26
2018-09-05T21:08:39.123Z,69.08
2018-09-05T21:11:07.307Z,69.51
2018-09-05T21:13:35.707Z,69.09
2018-09-05T21:16:03.975Z,69.03
2018-09-05T21:18:33.222Z,68.55
2018-09-05T21:21:01.503Z,69.33
2018-09-05T21:23:31.555Z,68.86
2018-09-05T21:25:59.803Z,68.65
2018-09-05T21:28:28.145Z,68.82
2018-09-05T21:30:56.390Z,69.43
2018-09-05T21:33:25.120Z,68.84
2018-09-05T21:35:53.334Z,69.46
2018-09-05T21:38:21.587Z,68.58
2018-09-05T21:40:49.790Z,68.85
2018-09-05T21:43:18.046Z,69.15
2018-09-05T21:45:46.403Z,69.32
2018-09-05T21:48:14.706Z,68.91
2018-09-05T21:50:43.593Z,68.33
2018-09-05T21:53:11.831Z,67.94
2018-09-05T21:55:40.034Z,69.01
2018-09-05T21:58:08.274Z,68.44
2018-09-05T22:00:37.445Z,67.80
2018-09-05T22:03:05.834Z,67.75
2018-09-05T22:05:34.674Z,68.83
2018-09-05T22:08:02.900Z,69.07
2018-09-05T22:10:31.126Z,67.75
2018-09-05T22:12:59.355Z,68.15
2018-09-05T22:15:31.990Z,67.83
2018-09-05T22:18:00.200Z,68.32
2018-09-05T22:20:28.423Z,68.59
2018-09-05T22:22:56.647Z,68.13
2018-09-05T22:25:24.899Z,68.18
2018-09-05T22:27:53.086Z,67.28
2018-09-05T22:30:21.381Z,67.22
2018-09-05T22:32:49.575Z,67.79
2018-09-05T22:35:17.927Z,67.78
2018-09-05T22:37:46.156Z,68.47
2018-09-05T22:40:14.378Z,68.61
2018-09-05T22:42:52.559Z,68.14
2018-09-05T22:45:32.201Z,68.29
2018-09-05T22:48:26.688Z,67.48
2018-09-05T22:51:13.179Z,67.68
2018-09-05T22:54:11.731Z,67.52
2018-09-05T22:56:57.665Z,67.76
2018-09-05T22:59:36.977Z,68.81
2018-09-05T23:03:18.622Z,68.89
2018-09-05T23:05:57.836Z,69.20
2018-09-05T23:08:41.816Z,69.03
2018-09-05T23:11:21.690Z,68.54
2018-09-05T23:14:04.155Z,69.05
2018-09-05T23:16:43.658Z,68.67
2018-09-05T23:19:33.648Z,69.34
2018-09-05T23:22:01.887Z,69.74
2018-09-05T23:24:30.964Z,68.66
2018-09-05T23:26:59.175Z,69.01
2018-09-05T23:29:27.431Z,69.04
2018-09-05T23:31:55.686Z,69.66
2018-09-05T23:34:23.956Z,70.05
2018-09-05T23:36:52.160Z,69.68
2018-09-05T23:39:20.351Z,68.69
2018-09-05T23:41:48.567Z,69.45
2018-09-05T23:44:16.780Z,68.43
2018-09-05T23:46:45.095Z,67.61
2018-09-05T23:49:13.305Z,68.34
2018-09-05T23:51:41.511Z,68.25
2018-09-05T23:54:09.783Z,67.44
2018-09-05T23:56:38.125Z,67.82
2018-09-05T23:59:07.528Z,68.58
